Time;durP1;ratioP1;P1;durP2;ratioP2;P2;SDS_P1;SDS_P2;PMS_P1;PMS_P2;Temp;Humidity;BMP_temperature;BMP_pressure;BME280_temperature;BME280_humidity;BME280_pressure;Samples;Min_cycle;Max_cycle;Signal;HPM_P1;HPM_P2
2023/12/12 00:00:13;;;;;;;10.80;6.80;;;;;;;16.34;46.70;92665.28;4930544;28;20076;-89
2023/12/12 00:02:39;;;;;;;6.35;4.05;;;;;;;16.36;46.90;92665.53;4938069;28;20073;-90
2023/12/12 00:05:04;;;;;;;10.80;6.55;;;;;;;16.40;46.54;92657.78;4942479;28;21365;-90
2023/12/12 00:07:32;;;;;;;10.05;6.38;;;;;;;16.33;46.87;92663.09;4946865;28;20061;-91
2023/12/12 00:09:58;;;;;;;9.75;6.55;;;;;;;16.36;46.58;92653.88;4939217;28;20053;-89
2023/12/12 00:12:23;;;;;;;7.75;5.95;;;;;;;16.33;46.60;92657.63;4911436;28;20910;-89
2023/12/12 00:14:49;;;;;;;5.90;3.95;;;;;;;16.31;46.68;92660.13;4957594;28;21285;-90
2023/12/12 00:17:14;;;;;;;9.52;5.93;;;;;;;16.34;46.90;92659.84;4951179;28;20053;-89
2023/12/12 00:19:42;;;;;;;9.27;6.80;;;;;;;16.32;47.22;92656.16;4965948;28;20041;-91
2023/12/12 00:22:09;;;;;;;11.48;6.75;;;;;;;16.34;46.77;92670.75;4972607;28;20037;-91
2023/12/12 00:24:34;;;;;;;6.97;5.45;;;;;;;16.36;46.61;92670.25;4956557;28;20673;-90
2023/12/12 00:27:00;;;;;;;6.72;5.18;;;;;;;16.32;46.79;92677.97;4977814;28;20029;-90
2023/12/12 00:29:25;;;;;;;8.27;5.90;;;;;;;16.32;46.81;92669.78;4969842;28;20033;-89
2023/12/12 00:31:51;;;;;;;7.82;5.68;;;;;;;16.28;46.62;92670.06;4957279;28;20069;-89
2023/12/12 00:34:16;;;;;;;8.55;5.13;;;;;;;16.29;47.11;92679.72;4979713;28;20037;-90
2023/12/12 00:36:42;;;;;;;7.97;5.70;;;;;;;16.31;47.00;92677.22;4956126;28;20110;-92
2023/12/12 00:39:07;;;;;;;7.72;5.43;;;;;;;16.32;46.76;92678.72;4961141;28;20980;-89
2023/12/12 00:41:34;;;;;;;6.47;4.50;;;;;;;16.36;46.72;92676.44;4956984;28;20044;-91
2023/12/12 00:44:00;;;;;;;8.68;6.05;;;;;;;16.39;46.58;92674.66;4941044;28;20037;-89
2023/12/12 00:46:25;;;;;;;7.25;5.75;;;;;;;16.39;46.48;92680.84;4953232;28;20037;-90
2023/12/12 00:48:51;;;;;;;9.32;6.45;;;;;;;16.34;46.71;92670.00;4954949;28;20211;-91
2023/12/12 00:51:16;;;;;;;7.85;5.60;;;;;;;16.34;46.93;92676.19;4950199;28;20041;-89
2023/12/12 00:53:43;;;;;;;8.45;6.07;;;;;;;16.42;46.55;92679.09;4948085;28;20064;-90
2023/12/12 00:56:08;;;;;;;7.07;5.28;;;;;;;16.41;46.84;92685.81;4976422;28;20040;-90
2023/12/12 00:58:34;;;;;;;6.63;4.25;;;;;;;16.37;46.73;92677.91;5004458;28;20067;-91
2023/12/12 01:01:00;;;;;;;7.35;4.68;;;;;;;16.41;46.84;92675.63;5012965;28;20031;-89
2023/12/12 01:03:25;;;;;;;8.85;5.05;;;;;;;16.38;46.93;92670.47;5011773;28;20379;-90
2023/12/12 01:05:51;;;;;;;7.30;4.80;;;;;;;16.32;46.83;92675.25;5030619;28;20055;-89
2023/12/12 01:08:16;;;;;;;8.30;5.60;;;;;;;16.39;46.64;92678.13;4979580;28;20628;-91
2023/12/12 01:10:42;;;;;;;7.75;4.32;;;;;;;16.39;46.74;92680.13;4973923;28;21112;-90
2023/12/12 01:13:07;;;;;;;7.25;4.43;;;;;;;16.41;46.69;92681.09;4959143;28;21536;-90
2023/12/12 01:15:33;;;;;;;8.25;5.90;;;;;;;16.48;46.83;92698.09;4973045;28;20043;-91
2023/12/12 01:17:58;;;;;;;6.90;5.03;;;;;;;16.43;46.78;92694.94;4968137;28;21043;-90
2023/12/12 01:20:23;;;;;;;5.25;4.10;;;;;;;16.44;46.81;92701.16;4967534;28;20035;-89
2023/12/12 01:22:49;;;;;;;6.53;4.20;;;;;;;16.48;46.55;92712.47;4985033;28;21261;-91
2023/12/12 01:25:14;;;;;;;9.52;7.22;;;;;;;16.48;46.57;92701.56;4948515;28;20083;-91
2023/12/12 01:27:40;;;;;;;9.75;5.72;;;;;;;16.43;46.69;92707.84;4939457;28;20370;-91
2023/12/12 01:30:07;;;;;;;7.65;5.10;;;;;;;16.46;46.70;92712.25;4947138;28;20042;-92
2023/12/12 01:32:32;;;;;;;8.18;5.40;;;;;;;16.47;46.43;92700.09;4973800;28;20114;-91
2023/12/12 01:34:58;;;;;;;10.35;7.13;;;;;;;16.47;46.70;92705.53;4991254;28;20034;-91
2023/12/12 01:37:23;;;;;;;8.20;6.50;;;;;;;16.44;46.60;92706.59;4999787;28;20146;-90
2023/12/12 01:39:49;;;;;;;5.82;4.40;;;;;;;16.40;46.80;92690.53;4976044;28;20037;-90
2023/12/12 01:42:14;;;;;;;10.23;5.97;;;;;;;16.45;46.83;92686.97;4969527;28;20577;-90
2023/12/12 01:44:40;;;;;;;8.10;5.93;;;;;;;16.39;46.85;92689.03;4968257;28;20049;-89
2023/12/12 01:47:05;;;;;;;7.95;5.50;;;;;;;16.45;46.67;92706.06;4990344;28;20071;-90
2023/12/12 01:49:31;;;;;;;8.50;5.53;;;;;;;16.41;46.64;92713.81;4971631;28;20045;-90
2023/12/12 01:51:57;;;;;;;8.80;6.45;;;;;;;16.46;46.67;92710.25;4990578;28;20052;-89
2023/12/12 01:54:22;;;;;;;5.20;3.97;;;;;;;16.43;46.90;92713.31;4988470;28;20045;-91
2023/12/12 01:56:48;;;;;;;7.07;5.82;;;;;;;16.47;46.68;92711.00;4992140;28;20478;-89
2023/12/12 01:59:14;;;;;;;8.60;6.20;;;;;;;16.47;46.65;92713.72;4981573;28;20049;-89
2023/12/12 02:01:40;;;;;;;7.78;5.55;;;;;;;16.47;46.66;92711.00;4968764;28;20419;-91
2023/12/12 02:04:06;;;;;;;6.85;4.43;;;;;;;16.44;46.81;92717.50;4979854;28;20331;-91
2023/12/12 02:06:31;;;;;;;8.07;5.05;;;;;;;16.44;46.61;92725.69;4979140;28;20072;-91
2023/12/12 02:08:56;;;;;;;8.70;5.68;;;;;;;16.46;46.75;92721.19;4971692;28;20045;-91
2023/12/12 02:11:22;;;;;;;10.52;7.00;;;;;;;16.45;46.87;92721.72;4964391;28;20065;-90
2023/12/12 02:13:48;;;;;;;7.20;5.72;;;;;;;16.40;46.97;92722.50;4944996;28;20122;-91
2023/12/12 02:16:13;;;;;;;8.68;6.28;;;;;;;16.37;47.06;92718.09;4964681;28;21724;-90
2023/12/12 02:18:39;;;;;;;6.32;4.65;;;;;;;16.43;47.12;92721.50;4944212;28;21440;-90
2023/12/12 02:21:04;;;;;;;8.70;5.75;;;;;;;16.44;46.92;92720.25;4969011;28;20044;-90
2023/12/12 02:23:30;;;;;;;6.35;4.35;;;;;;;16.42;46.94;92715.28;4990431;28;20075;-90
2023/12/12 02:25:56;;;;;;;7.00;5.00;;;;;;;16.46;46.91;92713.00;4960353;28;20048;-91
2023/12/12 02:28:22;;;;;;;7.65;5.35;;;;;;;16.48;46.64;92717.94;4975187;28;20132;-90
2023/12/12 02:30:47;;;;;;;7.53;5.50;;;;;;;16.43;47.03;92716.03;4956463;28;20190;-92
2023/12/12 02:33:12;;;;;;;7.15;5.22;;;;;;;16.45;46.45;92719.00;5012479;28;20871;-90
2023/12/12 02:35:38;;;;;;;7.03;5.32;;;;;;;16.47;46.79;92719.19;5022931;28;20137;-91
2023/12/12 02:38:03;;;;;;;6.32;4.80;;;;;;;16.42;46.83;92704.38;5032476;28;20093;-91
2023/12/12 02:40:29;;;;;;;6.85;4.70;;;;;;;16.39;47.08;92718.31;5017882;28;20025;-89
2023/12/12 02:42:54;;;;;;;9.65;6.18;;;;;;;16.44;47.16;92699.16;4982353;28;20029;-91
2023/12/12 02:45:20;;;;;;;7.15;4.75;;;;;;;16.39;47.16;92713.59;5016662;28;20047;-93
2023/12/12 02:47:45;;;;;;;5.72;4.47;;;;;;;16.37;47.00;92704.44;4983824;28;20068;-90
2023/12/12 02:50:11;;;;;;;7.13;5.20;;;;;;;16.42;46.94;92709.09;4998421;28;20040;-90
2023/12/12 02:52:36;;;;;;;8.82;6.00;;;;;;;16.49;47.02;92705.03;5009637;28;20036;-91
2023/12/12 02:55:02;;;;;;;4.65;3.83;;;;;;;16.48;46.75;92712.47;4972083;28;21687;-91
2023/12/12 02:57:28;;;;;;;7.72;5.20;;;;;;;16.44;46.60;92714.78;5017765;28;20127;-90
2023/12/12 02:59:53;;;;;;;7.00;5.30;;;;;;;16.47;46.81;92721.91;5023182;28;20055;-91
2023/12/12 03:02:18;;;;;;;9.63;5.20;;;;;;;16.45;46.55;92719.69;5031645;28;20036;-92
2023/12/12 03:04:44;;;;;;;5.57;4.25;;;;;;;16.43;46.72;92721.50;5050006;28;20082;-92
2023/12/12 03:07:10;;;;;;;7.47;5.13;;;;;;;16.50;46.96;92723.63;5040347;28;20027;-90
2023/12/12 03:09:35;;;;;;;6.55;4.97;;;;;;;16.48;46.45;92722.66;5028378;28;20036;-92
2023/12/12 03:12:01;;;;;;;7.57;4.60;;;;;;;16.41;46.79;92722.00;4964700;28;20049;-91
2023/12/12 03:14:30;;;;;;;6.97;4.95;;;;;;;16.44;46.67;92717.50;4972201;28;21435;-91
2023/12/12 03:16:56;;;;;;;9.60;6.22;;;;;;;16.50;46.68;92714.69;4956084;28;20062;-90
2023/12/12 03:19:22;;;;;;;8.32;5.53;;;;;;;16.46;46.79;92714.97;4973122;28;20126;-90
2023/12/12 03:21:49;;;;;;;9.70;7.43;;;;;;;16.49;46.83;92719.41;4970511;28;20981;-91
2023/12/12 03:24:16;;;;;;;10.48;6.97;;;;;;;16.48;46.70;92725.38;4978129;28;20033;-89
2023/12/12 03:26:42;;;;;;;5.40;4.40;;;;;;;16.44;46.73;92717.50;4976719;28;20048;-90
2023/12/12 03:29:08;;;;;;;9.95;6.35;;;;;;;16.46;46.83;92726.63;4991160;28;20115;-89
2023/12/12 03:31:33;;;;;;;7.43;5.15;;;;;;;16.46;46.95;92715.72;4987760;28;20044;-92
2023/12/12 03:33:59;;;;;;;6.25;4.97;;;;;;;16.45;46.84;92727.16;4991173;28;20047;-91
2023/12/12 03:36:24;;;;;;;7.22;4.93;;;;;;;16.44;46.85;92722.97;4993921;28;20112;-89
2023/12/12 03:38:50;;;;;;;7.55;5.50;;;;;;;16.47;46.77;92719.19;4973367;28;20037;-89
2023/12/12 03:41:16;;;;;;;6.72;5.38;;;;;;;16.46;46.84;92718.44;4976907;28;20553;-91
2023/12/12 03:43:41;;;;;;;7.65;4.90;;;;;;;16.48;46.67;92725.38;4991905;28;21458;-90
2023/12/12 03:46:12;;;;;;;7.97;5.68;;;;;;;16.48;46.62;92719.94;4986292;28;20122;-91
2023/12/12 03:48:37;;;;;;;6.20;4.47;;;;;;;16.38;46.86;92723.03;4973033;28;20700;-92
2023/12/12 03:51:03;;;;;;;7.15;5.25;;;;;;;16.48;46.75;92711.75;4998699;28;20060;-92
2023/12/12 03:53:28;;;;;;;4.78;3.75;;;;;;;16.44;46.60;92715.53;4941869;28;20043;-91
2023/12/12 03:55:54;;;;;;;8.40;4.97;;;;;;;16.46;46.65;92718.44;4955365;28;20145;-91
2023/12/12 03:58:19;;;;;;;11.43;7.70;;;;;;;16.46;46.74;92715.72;4957007;28;20070;-90
2023/12/12 04:00:45;;;;;;;5.85;4.03;;;;;;;16.35;47.11;92715.13;4981428;28;20055;-89
2023/12/12 04:03:10;;;;;;;5.88;3.97;;;;;;;16.37;46.97;92718.81;4967447;28;20061;-89
2023/12/12 04:05:36;;;;;;;10.02;6.85;;;;;;;16.44;46.76;92712.78;4965869;28;20049;-92
2023/12/12 04:08:01;;;;;;;8.15;4.80;;;;;;;16.51;46.85;92724.34;4959941;28;20057;-90
2023/12/12 04:10:27;;;;;;;5.50;4.07;;;;;;;16.50;46.71;92715.44;4887488;28;20043;-91
2023/12/12 04:12:53;;;;;;;7.38;4.75;;;;;;;16.50;46.81;92707.25;4876511;28;20054;-90
2023/12/12 04:15:18;;;;;;;6.38;4.85;;;;;;;16.53;46.75;92717.13;4880873;28;20079;-90
2023/12/12 04:17:44;;;;;;;13.15;6.22;;;;;;;16.50;46.78;92712.69;4896105;28;20522;-91
2023/12/12 04:20:11;;;;;;;6.13;4.70;;;;;;;16.50;47.04;92722.88;4865940;29;20272;-91
2023/12/12 04:22:36;;;;;;;7.43;5.25;;;;;;;16.45;46.77;92719.00;4860459;29;20087;-90
2023/12/12 04:25:02;;;;;;;5.82;4.30;;;;;;;16.36;47.19;92725.53;4867327;29;20051;-90
2023/12/12 04:27:27;;;;;;;9.13;4.47;;;;;;;16.45;46.84;92727.16;4884671;29;20054;-89
2023/12/12 04:29:53;;;;;;;6.68;4.60;;;;;;;16.51;46.53;92722.38;4868357;29;20052;-91
2023/12/12 04:32:18;;;;;;;7.32;4.40;;;;;;;16.45;46.77;92727.88;4866153;29;20363;-90
2023/12/12 04:34:45;;;;;;;13.07;9.55;;;;;;;16.46;46.77;92714.97;4885567;29;20047;-92
2023/12/12 04:37:10;;;;;;;14.68;6.47;;;;;;;16.51;47.07;92727.81;4887579;29;20051;-91
2023/12/12 04:39:37;;;;;;;13.95;8.88;;;;;;;16.51;46.78;92724.34;4878774;28;20043;-90
2023/12/12 04:42:04;;;;;;;10.75;7.72;;;;;;;16.48;47.32;92736.28;4940958;28;20107;-88
2023/12/12 04:44:30;;;;;;;12.85;9.25;;;;;;;16.49;47.15;92735.03;4959078;28;20075;-92
2023/12/12 04:46:55;;;;;;;20.70;10.73;;;;;;;16.44;47.42;92723.72;4970971;28;20132;-91
2023/12/12 04:49:21;;;;;;;14.43;10.15;;;;;;;16.39;47.07;92732.69;4955023;28;20037;-92
2023/12/12 04:51:46;;;;;;;22.50;14.70;;;;;;;16.54;47.03;92737.72;4972085;28;20052;-89
2023/12/12 04:54:12;;;;;;;15.25;9.70;;;;;;;16.50;46.56;92729.06;4987859;28;20504;-89
2023/12/12 04:56:37;;;;;;;16.55;10.50;;;;;;;16.43;47.03;92740.59;4966399;28;20148;-88
2023/12/12 04:59:03;;;;;;;20.30;13.93;;;;;;;16.48;46.86;92739.75;5019622;28;20032;-89
2023/12/12 05:01:28;;;;;;;34.22;16.77;;;;;;;16.49;46.95;92741.25;5004580;28;20032;-91
2023/12/12 05:03:54;;;;;;;25.38;15.93;;;;;;;16.49;47.02;92743.22;4985980;28;20049;-89
2023/12/12 05:06:19;;;;;;;29.45;15.35;;;;;;;16.40;46.97;92738.88;4999026;28;20039;-92
2023/12/12 05:08:47;;;;;;;25.25;14.30;;;;;;;16.44;46.94;92737.34;4989256;28;20215;-91
2023/12/12 05:11:13;;;;;;;22.90;14.65;;;;;;;16.44;47.16;92739.34;5007758;28;20028;-89
2023/12/12 05:13:39;;;;;;;27.73;16.10;;;;;;;16.43;46.67;92729.69;5008836;28;20044;-90
2023/12/12 05:16:10;;;;;;;31.75;15.13;;;;;;;16.31;46.81;92728.31;4983701;28;20043;-94
2023/12/12 05:18:40;;;;;;;30.70;17.20;;;;;;;16.22;46.53;92726.69;5005252;28;20101;-92
2023/12/12 05:21:06;;;;;;;25.17;14.52;;;;;;;16.32;46.27;92721.59;5009056;28;20471;-91
2023/12/12 05:23:34;;;;;;;25.02;14.18;;;;;;;16.35;46.67;92715.13;5023906;28;21364;-90
2023/12/12 05:26:00;;;;;;;20.58;9.60;;;;;;;16.30;44.66;92719.38;5029431;28;20028;-93
2023/12/12 05:28:26;;;;;;;53.20;23.00;;;;;;;16.21;44.14;92727.19;5028052;28;21319;-92
2023/12/12 05:30:52;;;;;;;14.52;8.25;;;;;;;16.11;42.97;92729.53;5014302;28;20046;-92
2023/12/12 05:33:18;;;;;;;25.13;7.32;;;;;;;16.00;43.18;92732.38;5039942;28;20111;-92
2023/12/12 05:35:44;;;;;;;19.10;8.00;;;;;;;16.02;43.72;92733.31;5021611;28;20496;-91
2023/12/12 05:38:09;;;;;;;28.38;11.32;;;;;;;16.16;43.79;92739.63;5026813;28;20044;-90
2023/12/12 05:40:37;;;;;;;47.25;19.73;;;;;;;16.06;44.02;92741.22;5011669;28;20092;-91
2023/12/12 05:43:02;;;;;;;70.93;34.40;;;;;;;16.19;44.85;92735.16;5016230;28;20119;-91
2023/12/12 05:45:28;;;;;;;110.82;54.70;;;;;;;16.23;44.86;92738.34;5030330;28;20554;-90
2023/12/12 05:47:53;;;;;;;108.78;51.03;;;;;;;16.26;45.38;92734.56;5040891;28;20024;-91
2023/12/12 05:50:19;;;;;;;107.63;54.10;;;;;;;16.33;45.52;92747.63;5035980;28;20036;-90
2023/12/12 05:52:44;;;;;;;111.38;58.58;;;;;;;16.31;45.53;92747.41;5022104;28;20036;-90
2023/12/12 05:55:10;;;;;;;111.38;57.13;;;;;;;16.35;45.67;92745.13;5011020;28;20036;-91
2023/12/12 05:57:36;;;;;;;126.22;61.40;;;;;;;16.39;45.38;92749.06;5031500;28;20076;-91
2023/12/12 06:00:03;;;;;;;138.45;69.43;;;;;;;16.34;45.58;92754.56;5036675;28;20125;-89
2023/12/12 06:02:29;;;;;;;135.55;67.43;;;;;;;16.35;45.49;92758.78;5022680;28;20029;-89
2023/12/12 06:04:54;;;;;;;206.95;83.97;;;;;;;16.34;45.37;92758.03;5017331;28;20291;-89
2023/12/12 06:07:20;;;;;;;151.88;75.55;;;;;;;16.45;45.17;92757.88;5010996;28;21311;-89
2023/12/12 06:09:45;;;;;;;164.63;79.78;;;;;;;16.41;45.49;92754.00;4995768;28;20067;-90
2023/12/12 06:12:12;;;;;;;150.55;75.78;;;;;;;16.41;45.12;92754.00;4976082;28;20041;-91
2023/12/12 06:14:37;;;;;;;170.73;87.28;;;;;;;16.36;45.62;92750.06;4974866;28;20489;-90
2023/12/12 06:17:12;;;;;;;153.82;78.97;;;;;;;16.46;45.29;92742.25;4978115;28;20044;-95
2023/12/12 06:19:37;;;;;;;164.77;82.03;;;;;;;16.39;45.97;92742.84;4982804;28;20036;-91
2023/12/12 06:22:03;;;;;;;140.43;71.88;;;;;;;16.40;45.77;92739.63;4996883;28;20040;-89
2023/12/12 06:24:29;;;;;;;137.85;76.75;;;;;;;16.53;45.22;92744.41;5000929;28;20051;-88
2023/12/12 06:26:55;;;;;;;166.13;82.85;;;;;;;16.47;45.42;92743.75;4985236;28;20051;-92
2023/12/12 06:29:21;;;;;;;175.38;89.63;;;;;;;16.53;45.58;92744.41;4981918;28;20024;-91
2023/12/12 06:31:47;;;;;;;173.77;88.78;;;;;;;16.54;45.35;92729.53;4997508;28;20119;-91
2023/12/12 06:34:12;;;;;;;189.73;90.05;;;;;;;16.51;45.71;92752.38;5012707;28;20094;-92
2023/12/12 06:36:38;;;;;;;196.20;92.45;;;;;;;16.49;45.35;92741.25;4992508;28;20044;-92
2023/12/12 06:39:03;;;;;;;189.77;88.05;;;;;;;16.52;45.79;92740.22;5016482;28;20055;-91
2023/12/12 06:41:29;;;;;;;165.45;83.65;;;;;;;16.49;46.02;92746.69;5026694;28;20073;-91
2023/12/12 06:43:55;;;;;;;165.50;80.82;;;;;;;16.53;45.62;92740.94;5020976;28;20455;-90
2023/12/12 06:46:20;;;;;;;155.63;80.22;;;;;;;16.55;45.46;92741.19;5033106;28;20063;-89
2023/12/12 06:48:45;;;;;;;161.05;84.43;;;;;;;16.59;45.79;92742.38;5044325;28;20028;-89
2023/12/12 06:51:11;;;;;;;156.73;81.47;;;;;;;16.60;45.41;92743.09;4992180;28;20456;-90
2023/12/12 06:53:37;;;;;;;135.80;73.65;;;;;;;16.63;45.66;92731.94;5004917;28;20045;-89
2023/12/12 06:56:02;;;;;;;160.68;82.07;;;;;;;16.58;45.63;92740.16;4976911;28;20041;-91
2023/12/12 06:58:28;;;;;;;153.88;83.68;;;;;;;16.58;45.57;92740.88;4985272;28;20320;-92
2023/12/12 07:00:54;;;;;;;206.35;98.28;;;;;;;16.55;45.54;92738.44;4993962;28;20045;-88
2023/12/12 07:03:22;;;;;;;185.43;91.32;;;;;;;16.64;45.47;92749.78;4967366;28;21277;-92
2023/12/12 07:05:52;;;;;;;183.25;97.45;;;;;;;16.68;45.72;92744.00;4977965;28;20163;-91
2023/12/12 07:08:32;;;;;;;199.60;108.43;;;;;;;16.64;45.97;92740.84;4988162;28;20060;-91
2023/12/12 07:11:07;;;;;;;195.48;108.18;;;;;;;16.62;45.81;92733.16;4988336;28;20042;-95
2023/12/12 07:13:33;;;;;;;218.60;116.22;;;;;;;16.63;45.58;92745.56;4979096;28;20029;-91
2023/12/12 07:16:00;;;;;;;216.65;114.82;;;;;;;16.62;45.86;92746.78;4967730;28;20036;-93
2023/12/12 07:18:25;;;;;;;204.65;113.53;;;;;;;16.63;45.90;92753.75;4940981;28;20037;-92
2023/12/12 07:20:51;;;;;;;192.82;105.57;;;;;;;16.66;45.76;92757.47;4987624;28;20099;-86
2023/12/12 07:23:16;;;;;;;220.30;111.78;;;;;;;16.59;45.92;92758.75;5007002;28;20150;-88
2023/12/12 07:25:42;;;;;;;180.70;103.25;;;;;;;16.66;46.00;92757.47;5023414;28;20267;-87
2023/12/12 07:28:07;;;;;;;192.00;107.63;;;;;;;16.66;46.18;92768.38;5000786;28;20043;-87
2023/12/12 07:30:33;;;;;;;216.30;114.28;;;;;;;16.66;45.85;92765.63;4978768;28;20091;-89
2023/12/12 07:32:58;;;;;;;194.80;108.00;;;;;;;16.64;45.97;92768.88;4953279;28;20368;-87
2023/12/12 07:35:25;;;;;;;196.05;103.75;;;;;;;16.66;45.78;92768.38;4987031;28;20424;-91
2023/12/12 07:37:51;;;;;;;197.93;108.68;;;;;;;16.66;45.73;92773.84;4971282;28;20503;-90
2023/12/12 07:40:17;;;;;;;248.90;131.07;;;;;;;16.58;46.04;92770.16;4925303;28;20057;-88
2023/12/12 07:42:44;;;;;;;231.90;124.35;;;;;;;16.69;45.45;92775.50;4927193;28;20052;-91
2023/12/12 07:45:10;;;;;;;205.63;112.18;;;;;;;16.71;45.72;92773.75;4923399;28;20050;-88
2023/12/12 07:47:35;;;;;;;216.38;114.38;;;;;;;16.71;45.66;92776.47;4919355;28;20942;-89
2023/12/12 07:50:05;;;;;;;189.57;107.85;;;;;;;16.68;45.45;92784.94;4935143;28;20045;-89
2023/12/12 07:52:34;;;;;;;194.15;106.35;;;;;;;16.63;45.95;92774.81;4932890;28;20133;-92
2023/12/12 07:55:00;;;;;;;209.32;110.35;;;;;;;16.70;45.76;92771.53;4923283;28;20085;-90
2023/12/12 07:57:25;;;;;;;215.55;116.93;;;;;;;16.68;45.87;92757.66;4924746;28;20484;-91
2023/12/12 07:59:51;;;;;;;226.50;114.78;;;;;;;16.71;45.99;92768.28;4924167;28;20571;-91
2023/12/12 08:02:16;;;;;;;223.15;121.07;;;;;;;16.78;45.95;92769.69;4960734;28;20041;-95
2023/12/12 08:04:42;;;;;;;260.98;138.40;;;;;;;16.66;45.69;92762.91;4985842;28;20044;-92
2023/12/12 08:07:08;;;;;;;238.73;126.45;;;;;;;16.68;46.17;92766.56;4998377;28;20129;-92
2023/12/12 08:09:36;;;;;;;248.20;133.38;;;;;;;16.72;45.65;92764.31;5009553;28;20700;-91
2023/12/12 08:12:02;;;;;;;239.27;123.30;;;;;;;16.77;45.73;92766.22;4989475;28;20557;-90
2023/12/12 08:14:27;;;;;;;236.93;128.93;;;;;;;16.74;45.75;92774.72;4996370;28;20184;-92
2023/12/12 08:17:02;;;;;;;254.07;140.02;;;;;;;16.76;45.40;92769.47;4997122;28;20037;-93
2023/12/12 08:19:28;;;;;;;231.98;122.40;;;;;;;16.74;45.67;92775.44;4989565;28;20036;-88
2023/12/12 08:21:54;;;;;;;279.63;145.70;;;;;;;16.71;45.95;92773.75;4982850;28;20223;-92
2023/12/12 08:24:20;;;;;;;272.63;144.90;;;;;;;16.78;45.75;92777.88;5005929;28;20078;-95
2023/12/12 08:26:46;;;;;;;234.13;131.75;;;;;;;16.81;45.87;92776.84;5011774;28;20376;-92
2023/12/12 08:29:14;;;;;;;226.40;126.15;;;;;;;16.75;45.84;92776.19;5006877;28;20588;-91
2023/12/12 08:31:40;;;;;;;230.65;126.32;;;;;;;16.73;45.91;92779.44;5037023;28;20119;-92
2023/12/12 08:34:05;;;;;;;225.40;129.82;;;;;;;16.77;45.93;92770.94;5018110;28;20171;-91
2023/12/12 08:36:31;;;;;;;250.75;132.40;;;;;;;16.79;46.04;92771.16;5007531;28;20599;-90
2023/12/12 08:38:58;;;;;;;211.95;118.95;;;;;;;16.83;46.02;92759.97;5047041;28;20129;-91
2023/12/12 08:41:27;;;;;;;214.60;122.60;;;;;;;16.76;45.82;92764.75;5036476;28;20361;-90
2023/12/12 08:43:54;;;;;;;241.77;128.70;;;;;;;16.84;45.76;92745.06;5025161;28;20046;-93
2023/12/12 08:46:26;;;;;;;229.80;125.25;;;;;;;16.75;45.75;92752.34;5027070;28;20257;-94
2023/12/12 08:48:55;;;;;;;233.38;125.55;;;;;;;16.82;45.53;92745.59;5026851;28;20036;-93
2023/12/12 08:51:22;;;;;;;271.95;147.77;;;;;;;16.86;45.46;92751.50;5025861;28;20031;-94
2023/12/12 08:53:49;;;;;;;269.00;145.27;;;;;;;16.87;45.64;92738.56;5050725;28;20032;-90
2023/12/12 08:56:15;;;;;;;266.38;144.02;;;;;;;16.89;45.58;92747.00;5045784;28;20158;-90
2023/12/12 08:58:41;;;;;;;312.58;162.10;;;;;;;16.90;45.94;92742.97;5023631;28;20046;-91
2023/12/12 09:01:06;;;;;;;256.75;141.32;;;;;;;16.95;45.75;92744.91;5060774;28;20077;-92
2023/12/12 09:03:32;;;;;;;276.50;146.60;;;;;;;16.94;45.30;92743.44;5026792;28;21476;-92
2023/12/12 09:05:57;;;;;;;280.88;152.63;;;;;;;16.96;45.53;92747.13;4990378;28;20058;-90
2023/12/12 09:08:24;;;;;;;279.33;151.00;;;;;;;16.91;45.86;92747.94;4969212;28;20041;-89
2023/12/12 09:10:54;;;;;;;295.83;164.13;;;;;;;16.91;45.71;92739.00;4979919;28;20072;-94
2023/12/12 09:13:22;;;;;;;298.80;173.02;;;;;;;16.90;45.44;92743.72;4971547;28;20045;-89
2023/12/12 09:15:48;;;;;;;312.85;163.73;;;;;;;16.91;45.63;92742.47;4937742;28;20056;-92
2023/12/12 09:18:15;;;;;;;372.08;193.02;;;;;;;16.92;45.83;92740.47;4935861;28;20050;-90
2023/12/12 09:20:41;;;;;;;332.65;182.30;;;;;;;16.93;45.92;92737.22;4935790;28;20041;-94
2023/12/12 09:23:06;;;;;;;293.95;168.77;;;;;;;16.96;45.85;92733.47;4931026;28;20135;-92
2023/12/12 09:25:33;;;;;;;319.63;187.05;;;;;;;16.93;45.71;92733.75;4941377;28;20453;-94
2023/12/12 09:27:59;;;;;;;322.17;179.82;;;;;;;16.95;45.92;92734.72;4946445;28;20572;-93
2023/12/12 09:30:24;;;;;;;360.13;195.95;;;;;;;16.92;45.86;92729.56;4948357;28;20710;-93
2023/12/12 09:32:53;;;;;;;324.70;178.15;;;;;;;16.98;45.76;92736.41;4948507;28;20226;-93
2023/12/12 09:35:18;;;;;;;317.58;177.07;;;;;;;16.96;46.18;92727.28;4966128;28;20139;-92
2023/12/12 09:37:44;;;;;;;378.10;201.63;;;;;;;16.99;45.38;92739.88;4971519;28;20542;-94
2023/12/12 09:40:10;;;;;;;295.30;168.55;;;;;;;17.04;46.02;92744.53;4998888;28;20122;-92
2023/12/12 09:42:38;;;;;;;320.13;180.48;;;;;;;16.97;46.13;92743.13;4959948;28;20687;-92
2023/12/12 09:45:11;;;;;;;278.88;157.18;;;;;;;17.01;46.31;92735.38;4962526;28;20061;-91
2023/12/12 09:47:36;;;;;;;327.25;181.02;;;;;;;17.00;45.93;92731.19;5005576;28;20044;-93
2023/12/12 09:50:02;;;;;;;326.58;185.98;;;;;;;17.04;45.84;92741.81;5022721;28;20568;-93
2023/12/12 09:52:30;;;;;;;310.40;177.70;;;;;;;17.06;45.75;92729.13;5020529;28;20033;-92
2023/12/12 09:54:57;;;;;;;320.60;179.75;;;;;;;17.09;45.58;92728.09;5013456;28;20051;-91
2023/12/12 09:57:23;;;;;;;311.77;178.90;;;;;;;16.94;45.75;92721.59;4951824;28;1909048;-93
2023/12/12 09:59:48;;;;;;;335.67;189.07;;;;;;;16.95;45.71;92720.34;4990452;28;20083;-92
2023/12/12 10:02:20;;;;;;;309.75;170.13;;;;;;;17.06;46.28;92722.91;5013571;28;20033;-92
2023/12/12 10:04:45;;;;;;;334.05;176.45;;;;;;;17.00;46.19;92719.53;5033546;28;20043;-91
2023/12/12 10:07:13;;;;;;;304.05;156.02;;;;;;;17.06;46.04;92726.38;4969623;28;20074;-92
2023/12/12 10:09:48;;;;;;;321.05;178.15;;;;;;;17.04;45.66;92720.69;4996707;28;20714;-93
2023/12/12 10:12:14;;;;;;;345.35;184.80;;;;;;;17.02;46.12;92717.75;4969355;28;20239;-92
2023/12/12 10:14:40;;;;;;;279.70;154.32;;;;;;;17.06;46.35;92718.19;4975778;28;20036;-92
2023/12/12 10:17:10;;;;;;;284.50;165.80;;;;;;;17.07;46.11;92722.41;4977031;28;20179;-93
2023/12/12 10:19:36;;;;;;;301.02;167.93;;;;;;;17.01;46.51;92710.81;5000988;28;20048;-89
2023/12/12 10:22:05;;;;;;;314.45;180.45;;;;;;;17.08;46.43;92704.03;5020158;28;20527;-91
2023/12/12 10:24:35;;;;;;;356.08;213.63;;;;;;;17.09;45.89;92706.25;5002461;28;20059;-94
2023/12/12 10:27:01;;;;;;;411.85;243.07;;;;;;;17.05;45.79;92694.88;4993814;28;20899;-88
2023/12/12 10:29:27;;;;;;;456.67;278.33;;;;;;;17.07;46.10;92688.91;4994480;28;20302;-91
2023/12/12 10:31:53;;;;;;;401.55;247.77;;;;;;;17.11;46.22;92681.13;5002017;28;20045;-91
2023/12/12 10:34:23;;;;;;;421.30;255.05;;;;;;;17.07;46.20;92669.78;4989663;28;20139;-90
2023/12/12 10:36:49;;;;;;;398.65;245.02;;;;;;;17.13;45.72;92682.06;5010190;28;20585;-93
2023/12/12 10:39:15;;;;;;;394.30;245.93;;;;;;;17.05;45.58;92678.50;4975136;28;20048;-92
2023/12/12 10:41:41;;;;;;;361.15;224.65;;;;;;;17.09;46.28;92684.41;4999259;28;20052;-92
2023/12/12 10:44:08;;;;;;;355.30;206.70;;;;;;;17.11;46.19;92686.56;4944697;28;20551;-94
2023/12/12 10:46:36;;;;;;;334.90;203.07;;;;;;;17.12;45.81;92685.31;4929486;28;20357;-91
2023/12/12 10:49:02;;;;;;;314.27;189.20;;;;;;;17.12;45.95;92683.31;4910460;28;20094;-88
2023/12/12 10:51:28;;;;;;;289.92;177.20;;;;;;;17.06;46.48;92679.22;4923603;28;20179;-92
2023/12/12 10:53:54;;;;;;;292.50;178.55;;;;;;;17.05;45.74;92670.31;4911428;28;20522;-92
2023/12/12 10:56:20;;;;;;;306.88;184.52;;;;;;;17.08;46.07;92663.06;4911451;28;20087;-94
2023/12/12 10:58:45;;;;;;;302.23;186.85;;;;;;;17.10;46.12;92672.19;4909000;28;20074;-91
2023/12/12 11:01:12;;;;;;;284.73;167.15;;;;;;;17.16;45.57;92658.44;4889983;28;20046;-90
2023/12/12 11:03:38;;;;;;;271.40;160.05;;;;;;;17.10;46.16;92657.81;4889019;28;20714;-92
2023/12/12 11:06:04;;;;;;;276.08;162.43;;;;;;;17.07;46.25;92659.59;4873210;29;20058;-91
2023/12/12 11:08:30;;;;;;;272.58;160.63;;;;;;;17.06;45.88;92660.13;4872057;29;20047;-90
2023/12/12 11:10:55;;;;;;;270.65;160.65;;;;;;;17.05;45.69;92651.19;4898406;28;20059;-89